Alto Springs, Texas
Current Conditions -  °F | °C
As of 12:55 AM on Tuesday 21 Oct 2014 (Local Time) from KLXY Reporting Station
Clear Clear  
Wind Chill: 16°   Ceiling: Unl
Heat Index: 16°   Visibility: 10mi
Dew Point: 15°   Wind: 0mph
Humidity: 91%   Direction: NA
Pressure: 30.04"   Gusts: NA
Location:  31.3327°N, 96.6013°W
Report Text: KLXY 210555Z AUTO 00000KT 10SM CLR 17/15 A3004 RMK AO2 T01650150 10221 20164 402620133
Loading
Personal Weather Stations






























Interactive Weather Map
Tropical Storm Tracking
New forecast layout! Learn more

10-Day Weather Forecast

Advertisements
Track Severe Weather on mobile